createdAt,value
2023-09-03T00:02:27.245Z,100191.16
2023-09-03T00:04:56.611Z,100192.22
2023-09-03T00:07:24.637Z,100197.69
2023-09-03T00:09:52.655Z,100200.41
2023-09-03T00:12:20.638Z,100194.31
2023-09-03T00:14:48.674Z,100188.25
2023-09-03T00:17:16.630Z,100190.38
2023-09-03T00:19:44.786Z,100190.38
2023-09-03T00:22:14.159Z,100189.03
2023-09-03T00:24:42.182Z,100188.19
2023-09-03T00:27:10.149Z,100185.19
2023-09-03T00:29:38.152Z,100190.50
2023-09-03T00:32:06.276Z,100181.50
2023-09-03T00:34:34.775Z,100186.56
2023-09-03T00:37:02.773Z,100186.22
2023-09-03T00:39:32.326Z,100182.50
2023-09-03T00:42:01.461Z,100182.38
2023-09-03T00:44:29.430Z,100176.31
2023-09-03T00:46:57.435Z,100183.91
2023-09-03T00:49:25.864Z,100185.31
2023-09-03T00:51:54.346Z,100170.69
2023-09-03T00:54:22.466Z,100175.78
2023-09-03T00:56:51.957Z,100181.72
2023-09-03T00:59:20.446Z,100169.19
2023-09-03T01:01:50.365Z,100172.34
2023-09-03T01:04:19.737Z,100172.34
2023-09-03T01:06:47.881Z,100174.47
2023-09-03T01:09:15.896Z,100173.00
2023-09-03T01:11:45.981Z,100187.91
2023-09-03T01:14:18.268Z,100185.25
2023-09-03T01:16:50.075Z,100182.34
2023-09-03T01:19:30.921Z,100189.91
2023-09-03T01:22:03.257Z,100175.69
2023-09-03T01:24:42.587Z,100174.69
2023-09-03T01:27:17.426Z,100180.38
2023-09-03T01:29:46.784Z,100181.22
2023-09-03T01:32:14.950Z,100186.88
2023-09-03T01:34:42.900Z,100191.56
2023-09-03T01:37:10.981Z,100197.78
2023-09-03T01:39:39.061Z,100188.53
2023-09-03T01:42:07.123Z,100191.97
2023-09-03T01:44:35.111Z,100190.72
2023-09-03T01:47:07.957Z,100194.16
2023-09-03T01:49:39.269Z,100198.81
2023-09-03T01:52:13.237Z,100189.00
2023-09-03T01:54:41.884Z,100170.63
2023-09-03T01:57:13.287Z,100180.63
2023-09-03T01:59:43.625Z,100184.19
2023-09-03T02:02:13.286Z,100180.81
2023-09-03T02:04:41.484Z,100172.84
2023-09-03T02:07:09.486Z,100173.69
2023-09-03T02:09:37.478Z,100181.25
2023-09-03T02:12:07.390Z,100177.91
2023-09-03T02:14:35.398Z,100172.91
2023-09-03T02:17:03.735Z,100175.03
2023-09-03T02:19:33.122Z,100175.03
2023-09-03T02:22:01.153Z,100171.41
2023-09-03T02:24:29.108Z,100175.19
2023-09-03T02:26:57.164Z,100176.72
2023-09-03T02:29:25.154Z,100175.91
2023-09-03T02:31:53.167Z,100185.00
2023-09-03T02:34:21.216Z,100186.88
2023-09-03T02:36:50.576Z,100184.81
2023-09-03T02:39:18.678Z,100190.69
2023-09-03T02:41:46.674Z,100190.03
2023-09-03T02:44:14.660Z,100184.38
2023-09-03T02:46:42.666Z,100182.69
2023-09-03T02:49:11.232Z,100179.97
2023-09-03T02:51:39.729Z,100181.03
2023-09-03T02:54:09.182Z,100183.16
2023-09-03T02:56:37.182Z,100181.81
2023-09-03T02:59:05.232Z,100191.06
2023-09-03T03:01:35.429Z,100192.25
2023-09-03T03:04:03.700Z,100192.72
2023-09-03T03:06:31.679Z,100186.88
2023-09-03T03:08:59.865Z,100177.16
2023-09-03T03:11:29.200Z,100166.53
2023-09-03T03:13:57.250Z,100180.78
2023-09-03T03:16:25.764Z,100175.75
2023-09-03T03:18:53.971Z,100183.16
2023-09-03T03:21:23.679Z,100190.09
2023-09-03T03:23:52.974Z,100191.41
2023-09-03T03:26:21.044Z,100188.53
2023-09-03T03:28:50.470Z,100194.00
2023-09-03T03:31:19.039Z,100194.81
2023-09-03T03:33:49.466Z,100188.16
2023-09-03T03:36:17.818Z,100189.81
2023-09-03T03:38:46.052Z,100186.28
2023-09-03T03:41:14.928Z,100189.81
2023-09-03T03:43:44.147Z,100189.81
2023-09-03T03:46:15.747Z,100189.81
2023-09-03T03:48:43.753Z,100191.50
2023-09-03T03:51:11.810Z,100193.19
2023-09-03T03:53:39.773Z,100196.47
2023-09-03T03:56:08.442Z,100188.53
2023-09-03T03:58:37.361Z,100186.16
2023-09-03T04:01:14.048Z,100185.97
2023-09-03T04:03:42.680Z,100189.72
2023-09-03T04:06:10.729Z,100192.81
2023-09-03T04:08:39.345Z,100196.09
2023-09-03T04:11:08.429Z,100195.00
2023-09-03T04:13:36.712Z,100199.97
2023-09-03T04:16:07.892Z,100192.38
2023-09-03T04:18:37.355Z,100193.16
2023-09-03T04:21:05.414Z,100195.16
2023-09-03T04:23:33.398Z,100199.72
2023-09-03T04:26:01.401Z,100197.94
2023-09-03T04:28:29.452Z,100192.00
2023-09-03T04:30:57.974Z,100189.88
2023-09-03T04:33:26.101Z,100184.94
2023-09-03T04:35:58.317Z,100192.09
2023-09-03T04:38:26.434Z,100182.63
2023-09-03T04:40:54.427Z,100189.19
2023-09-03T04:43:22.376Z,100178.84
2023-09-03T04:45:50.650Z,100183.91
2023-09-03T04:48:19.248Z,100180.81
2023-09-03T04:50:47.684Z,100180.13
2023-09-03T04:53:17.041Z,100186.84
2023-09-03T04:55:45.023Z,100174.16
2023-09-03T04:58:13.046Z,100182.47
2023-09-03T05:00:41.156Z,100175.31
2023-09-03T05:03:09.308Z,100180.16
2023-09-03T05:05:41.657Z,100172.94
2023-09-03T05:08:09.704Z,100175.47
2023-09-03T05:10:39.947Z,100175.53
2023-09-03T05:13:07.988Z,100179.84
2023-09-03T05:15:37.898Z,100191.56
2023-09-03T05:18:06.382Z,100184.09
2023-09-03T05:20:34.468Z,100192.72
2023-09-03T05:23:02.516Z,100197.03
2023-09-03T05:25:30.489Z,100193.81
2023-09-03T05:28:00.022Z,100201.25
2023-09-03T05:30:28.222Z,100208.94
2023-09-03T05:32:56.256Z,100214.00
2023-09-03T05:35:24.494Z,100212.25
2023-09-03T05:37:52.602Z,100222.06
2023-09-03T05:40:20.610Z,100220.13
2023-09-03T05:42:49.760Z,100225.06
2023-09-03T05:45:19.169Z,100222.84
2023-09-03T05:47:47.230Z,100222.19
2023-09-03T05:50:15.234Z,100220.47
2023-09-03T05:52:44.148Z,100222.81
2023-09-03T05:55:12.298Z,100227.84
2023-09-03T05:57:41.413Z,100223.78
2023-09-03T06:00:09.866Z,100222.59
2023-09-03T06:02:39.236Z,100210.38
2023-09-03T06:05:08.411Z,100211.69
2023-09-03T06:07:36.405Z,100209.31
2023-09-03T06:10:04.450Z,100210.75
2023-09-03T06:12:32.617Z,100197.59
2023-09-03T06:15:00.655Z,100214.81
2023-09-03T06:17:28.667Z,100219.38
2023-09-03T06:19:58.055Z,100220.44
2023-09-03T06:22:26.025Z,100223.91
2023-09-03T06:24:54.045Z,100222.09
2023-09-03T06:27:22.061Z,100220.69
2023-09-03T06:29:50.189Z,100217.34
2023-09-03T06:32:18.253Z,100229.38
2023-09-03T06:34:46.209Z,100223.53
2023-09-03T06:37:15.540Z,100229.41
2023-09-03T06:39:44.018Z,100226.13
2023-09-03T06:42:12.062Z,100226.97
2023-09-03T06:44:40.064Z,100230.94
2023-09-03T06:47:08.125Z,100225.69
2023-09-03T06:49:36.136Z,100227.06
2023-09-03T06:52:04.245Z,100220.91
2023-09-03T06:54:33.611Z,100223.28
2023-09-03T06:57:01.575Z,100221.28
2023-09-03T06:59:34.619Z,100219.63
2023-09-03T07:02:03.333Z,100212.19
2023-09-03T07:04:31.368Z,100221.38
2023-09-03T07:07:02.741Z,100214.28
2023-09-03T07:09:34.296Z,100220.22
2023-09-03T07:12:02.318Z,100220.13
2023-09-03T07:14:33.346Z,100217.03
2023-09-03T07:17:01.680Z,100222.66
2023-09-03T07:19:29.703Z,100217.34
2023-09-03T07:21:57.678Z,100224.09
2023-09-03T07:24:25.727Z,100222.13
2023-09-03T07:26:55.081Z,100224.69
2023-09-03T07:29:23.100Z,100219.16
2023-09-03T07:31:51.102Z,100235.75
2023-09-03T07:34:19.169Z,100221.06
2023-09-03T07:36:47.148Z,100224.41
2023-09-03T07:39:15.156Z,100227.03
2023-09-03T07:41:43.737Z,100235.75
2023-09-03T07:44:13.186Z,100233.22
2023-09-03T07:46:41.220Z,100225.75
2023-09-03T07:49:09.272Z,100216.13
2023-09-03T07:51:37.277Z,100226.25
2023-09-03T07:54:05.774Z,100212.63
2023-09-03T07:56:33.762Z,100226.50
2023-09-03T07:59:01.985Z,100221.69
2023-09-03T08:01:31.349Z,100223.19
2023-09-03T08:03:59.461Z,100224.81
2023-09-03T08:06:27.457Z,100215.63
2023-09-03T08:08:56.222Z,100217.28
2023-09-03T08:11:24.272Z,100220.50
2023-09-03T08:13:53.084Z,100215.34
2023-09-03T08:16:21.145Z,100215.19
2023-09-03T08:18:53.206Z,100220.19
2023-09-03T08:21:21.209Z,100205.41
2023-09-03T08:23:49.219Z,100200.91
2023-09-03T08:26:17.236Z,100197.78
2023-09-03T08:28:45.270Z,100201.56
2023-09-03T08:31:13.321Z,100200.63
2023-09-03T08:33:41.956Z,100193.91
2023-09-03T08:36:11.371Z,100197.47
2023-09-03T08:38:39.327Z,100193.63
2023-09-03T08:41:07.299Z,100191.28
2023-09-03T08:43:35.281Z,100192.88
2023-09-03T08:46:04.142Z,100190.81
2023-09-03T08:48:32.167Z,100172.34
2023-09-03T08:51:00.197Z,100177.50
2023-09-03T08:53:29.593Z,100172.13
2023-09-03T08:55:57.590Z,100175.72
2023-09-03T08:58:25.686Z,100172.44
2023-09-03T09:00:55.152Z,100169.47
2023-09-03T09:03:23.812Z,100167.34
2023-09-03T09:05:52.082Z,100166.53
2023-09-03T09:08:20.071Z,100163.56
2023-09-03T09:10:49.652Z,100160.78
2023-09-03T09:13:21.466Z,100153.09
2023-09-03T09:15:49.723Z,100151.63
2023-09-03T09:18:17.807Z,100148.34
2023-09-03T09:20:45.827Z,100145.31
2023-09-03T09:23:13.881Z,100149.81
2023-09-03T09:25:41.912Z,100142.88
2023-09-03T09:28:15.517Z,100146.91
2023-09-03T09:30:56.467Z,100136.22
2023-09-03T09:33:25.140Z,100140.34
2023-09-03T09:35:53.929Z,100140.91
2023-09-03T09:38:21.890Z,100139.09
2023-09-03T09:40:49.882Z,100138.00
2023-09-03T09:43:19.452Z,100136.81
2023-09-03T09:45:48.519Z,100133.59
2023-09-03T09:48:16.625Z,100121.91
2023-09-03T09:50:45.596Z,100118.66
2023-09-03T09:53:31.223Z,100119.94
2023-09-03T09:56:01.044Z,100120.22
2023-09-03T09:58:40.084Z,100109.69
2023-09-03T10:01:08.363Z,100095.06
2023-09-03T10:03:43.712Z,100099.59
2023-09-03T10:06:11.806Z,100104.88
2023-09-03T10:08:39.830Z,100100.81
2023-09-03T10:11:07.788Z,100092.25
2023-09-03T10:13:35.789Z,100088.50
2023-09-03T10:16:05.272Z,100078.56
2023-09-03T10:18:33.616Z,100067.97
2023-09-03T10:21:02.849Z,100065.22
2023-09-03T10:23:31.395Z,100068.09
2023-09-03T10:26:05.672Z,100076.19
2023-09-03T10:28:34.649Z,100071.56
2023-09-03T10:31:03.996Z,100062.28
2023-09-03T10:33:32.006Z,100058.03
2023-09-03T10:36:18.981Z,100059.44
2023-09-03T10:38:47.011Z,100066.44
2023-09-03T10:41:23.718Z,100045.63
2023-09-03T10:43:53.041Z,100053.78
2023-09-03T10:46:23.378Z,100050.88
2023-09-03T10:48:55.001Z,100049.06
2023-09-03T10:51:33.651Z,100047.06
2023-09-03T10:54:20.488Z,100051.72
2023-09-03T10:57:19.679Z,100042.16
2023-09-03T11:00:17.240Z,100051.31
2023-09-03T11:02:50.598Z,100044.09
2023-09-03T11:05:21.933Z,100041.38
2023-09-03T11:07:50.773Z,100034.56
2023-09-03T11:10:43.316Z,100025.31
2023-09-03T11:13:26.626Z,100030.16
2023-09-03T11:16:03.089Z,100028.31
2023-09-03T11:18:33.871Z,100027.88
2023-09-03T11:21:02.354Z,100017.78
2023-09-03T11:23:35.145Z,100018.66
2023-09-03T11:26:07.098Z,100002.22
2023-09-03T11:28:37.301Z,99993.13
2023-09-03T11:31:05.545Z,99986.28
2023-09-03T11:33:34.988Z,99988.22
2023-09-03T11:36:03.038Z,99982.13
2023-09-03T11:38:33.700Z,99964.78
2023-09-03T11:41:01.723Z,99978.72
2023-09-03T11:43:31.121Z,99972.53
2023-09-03T11:45:59.107Z,99968.34
2023-09-03T11:48:27.313Z,99973.38
2023-09-03T11:50:56.715Z,99968.19
2023-09-03T11:53:25.053Z,99959.66
2023-09-03T11:55:54.830Z,99938.75
2023-09-03T11:58:23.421Z,99947.97
2023-09-03T12:00:51.472Z,99939.81
2023-09-03T12:03:19.583Z,99926.94
2023-09-03T12:05:47.731Z,99930.75
2023-09-03T12:08:17.141Z,99931.53
2023-09-03T12:10:48.964Z,99921.47
2023-09-03T12:13:29.138Z,99917.22
2023-09-03T12:16:04.409Z,99913.34
2023-09-03T12:18:32.399Z,99916.94
2023-09-03T12:21:00.554Z,99908.13
2023-09-03T12:23:30.277Z,99909.38
2023-09-03T12:25:58.472Z,99906.38
2023-09-03T12:28:36.934Z,99897.56
2023-09-03T12:31:05.899Z,99893.41
2023-09-03T12:33:47.876Z,99878.91
2023-09-03T12:36:16.521Z,99880.81
2023-09-03T12:38:55.660Z,99879.38
2023-09-03T12:41:24.442Z,99880.81
2023-09-03T12:43:52.564Z,99881.25
2023-09-03T12:46:20.753Z,99867.00
2023-09-03T12:48:48.788Z,99875.59
2023-09-03T12:51:17.761Z,99876.53
2023-09-03T12:53:46.909Z,99874.56
2023-09-03T12:56:16.327Z,99867.53
2023-09-03T12:58:44.403Z,99867.03
2023-09-03T13:01:12.568Z,99864.06
2023-09-03T13:03:40.688Z,99869.53
2023-09-03T13:06:08.729Z,99856.94
2023-09-03T13:08:38.304Z,99848.63
2023-09-03T13:11:06.338Z,99847.94
2023-09-03T13:13:35.667Z,99841.09
2023-09-03T13:16:04.767Z,99850.03
2023-09-03T13:18:33.226Z,99843.97
2023-09-03T13:21:01.971Z,99836.47
2023-09-03T13:23:30.000Z,99840.09
2023-09-03T13:25:58.045Z,99834.59
2023-09-03T13:28:26.056Z,99836.78
2023-09-03T13:31:05.541Z,99836.59
2023-09-03T13:33:35.681Z,99831.81
2023-09-03T13:36:05.059Z,99831.00
2023-09-03T13:38:33.822Z,99830.13
2023-09-03T13:41:01.830Z,99834.09
2023-09-03T13:43:29.883Z,99830.53
2023-09-03T13:45:59.745Z,99824.56
2023-09-03T13:48:27.900Z,99822.16
2023-09-03T13:50:56.887Z,99820.16
2023-09-03T13:53:25.517Z,99813.09
2023-09-03T13:55:53.807Z,99813.75
2023-09-03T13:58:22.050Z,99809.66
2023-09-03T14:00:50.236Z,99819.84
2023-09-03T14:03:19.745Z,99814.13
2023-09-03T14:05:47.989Z,99806.41
2023-09-03T14:08:17.495Z,99801.13
2023-09-03T14:10:45.529Z,99791.31
2023-09-03T14:13:13.542Z,99791.13
2023-09-03T14:15:41.598Z,99780.75
2023-09-03T14:18:09.668Z,99776.34
2023-09-03T14:20:39.278Z,99777.88
2023-09-03T14:23:07.228Z,99772.31
2023-09-03T14:25:36.560Z,99768.41
2023-09-03T14:28:04.619Z,99763.50
2023-09-03T14:30:32.635Z,99754.88
2023-09-03T14:33:03.461Z,99756.63
2023-09-03T14:35:31.599Z,99747.63
2023-09-03T14:38:00.982Z,99754.66
2023-09-03T14:40:28.998Z,99746.78
2023-09-03T14:42:57.058Z,99743.09
2023-09-03T14:45:25.187Z,99740.97
2023-09-03T14:47:53.211Z,99742.03
2023-09-03T14:50:23.474Z,99739.22
2023-09-03T14:52:51.610Z,99754.00
2023-09-03T14:55:24.039Z,99746.56
2023-09-03T14:57:54.017Z,99743.81
2023-09-03T15:00:22.024Z,99743.94
2023-09-03T15:02:50.058Z,99735.31
2023-09-03T15:05:18.165Z,99728.22
2023-09-03T15:07:46.166Z,99730.47
2023-09-03T15:10:14.316Z,99728.66
2023-09-03T15:12:43.656Z,99729.00
2023-09-03T15:15:12.831Z,99720.31
2023-09-03T15:17:40.836Z,99718.75
2023-09-03T15:20:10.499Z,99717.97
2023-09-03T15:22:38.485Z,99722.47
2023-09-03T15:25:07.469Z,99721.47
2023-09-03T15:27:35.500Z,99715.03
2023-09-03T15:30:05.601Z,99712.34
2023-09-03T15:32:33.619Z,99713.00
2023-09-03T15:35:01.745Z,99699.22
2023-09-03T15:37:29.706Z,99696.16
2023-09-03T15:39:57.678Z,99687.63
2023-09-03T15:42:25.674Z,99690.38
2023-09-03T15:44:53.868Z,99697.78
2023-09-03T15:47:23.190Z,99688.97
2023-09-03T15:49:51.223Z,99685.03
2023-09-03T15:52:19.198Z,99677.81
2023-09-03T15:54:47.163Z,99678.25
2023-09-03T15:57:15.187Z,99678.94
2023-09-03T15:59:43.232Z,99673.91
2023-09-03T16:02:12.176Z,99684.16
2023-09-03T16:04:42.666Z,99684.91
2023-09-03T16:07:10.698Z,99676.09
2023-09-03T16:09:38.771Z,99678.69
2023-09-03T16:12:07.376Z,99675.88
2023-09-03T16:14:35.397Z,99673.88
2023-09-03T16:17:03.375Z,99663.06
2023-09-03T16:19:31.382Z,99673.84
2023-09-03T16:22:00.865Z,99668.53
2023-09-03T16:24:28.857Z,99669.34
2023-09-03T16:26:56.871Z,99668.94
2023-09-03T16:29:25.330Z,99662.97
2023-09-03T16:31:53.525Z,99659.03
2023-09-03T16:34:21.556Z,99662.78
2023-09-03T16:36:49.607Z,99664.84
2023-09-03T16:39:19.013Z,99655.13
2023-09-03T16:41:47.670Z,99649.44
2023-09-03T16:44:15.676Z,99654.22
2023-09-03T16:46:43.683Z,99648.28
2023-09-03T16:49:11.705Z,99652.03
2023-09-03T16:51:40.024Z,99647.97
2023-09-03T16:54:08.373Z,99649.66
2023-09-03T16:56:37.809Z,99644.72
2023-09-03T16:59:06.727Z,99648.94
2023-09-03T17:01:34.730Z,99647.34
2023-09-03T17:04:02.723Z,99649.28
2023-09-03T17:06:31.076Z,99650.69
2023-09-03T17:08:59.832Z,99649.06
2023-09-03T17:11:28.333Z,99647.47
2023-09-03T17:13:59.035Z,99650.25
2023-09-03T17:16:27.124Z,99645.56
2023-09-03T17:18:57.765Z,99645.56
2023-09-03T17:21:26.105Z,99648.03
2023-09-03T17:23:54.096Z,99643.66
2023-09-03T17:26:26.546Z,99647.22
2023-09-03T17:28:59.085Z,99649.69
2023-09-03T17:31:30.908Z,99641.47
2023-09-03T17:33:59.273Z,99646.97
2023-09-03T17:36:27.386Z,99648.03
2023-09-03T17:38:55.635Z,99650.25
2023-09-03T17:41:24.605Z,99642.56
2023-09-03T17:43:55.092Z,99649.69
2023-09-03T17:46:23.196Z,99648.59
2023-09-03T17:48:52.672Z,99661.47
2023-09-03T17:51:20.668Z,99644.41
2023-09-03T17:53:48.638Z,99648.81
2023-09-03T17:56:16.655Z,99654.03
2023-09-03T17:58:44.662Z,99653.47
2023-09-03T18:01:12.698Z,99660.06
2023-09-03T18:03:40.873Z,99650.47
2023-09-03T18:06:11.550Z,99649.06
2023-09-03T18:08:40.028Z,99657.31
2023-09-03T18:11:13.112Z,99650.19
2023-09-03T18:13:42.166Z,99655.66
2023-09-03T18:16:10.379Z,99655.97
2023-09-03T18:18:38.461Z,99650.16
2023-09-03T18:21:06.441Z,99645.78
2023-09-03T18:23:35.772Z,99651.78
2023-09-03T18:26:04.578Z,99645.78
2023-09-03T18:28:33.343Z,99650.16
2023-09-03T18:31:01.412Z,99641.91
2023-09-03T18:33:29.460Z,99642.13
2023-09-03T18:35:57.559Z,99639.66
2023-09-03T18:38:25.883Z,99640.78
2023-09-03T18:40:55.304Z,99636.91
2023-09-03T18:43:23.317Z,99641.56
2023-09-03T18:45:52.837Z,99639.13
2023-09-03T18:48:21.208Z,99642.97
2023-09-03T18:50:49.360Z,99635.56
2023-09-03T18:53:17.370Z,99642.97
2023-09-03T18:55:45.332Z,99652.28
2023-09-03T18:58:14.658Z,99644.06
2023-09-03T19:00:42.790Z,99650.09
2023-09-03T19:03:10.881Z,99639.06
2023-09-03T19:05:39.070Z,99640.97
2023-09-03T19:08:07.488Z,99636.00
2023-09-03T19:10:35.524Z,99637.34
2023-09-03T19:13:07.246Z,99642.81
2023-09-03T19:15:40.258Z,99639.97
2023-09-03T19:18:08.595Z,99644.34
2023-09-03T19:20:37.564Z,99648.41
2023-09-03T19:23:06.298Z,99642.56
2023-09-03T19:25:43.605Z,99636.91
2023-09-03T19:28:14.642Z,99651.44
2023-09-03T19:30:44.287Z,99644.88
2023-09-03T19:33:12.550Z,99648.72
2023-09-03T19:35:40.621Z,99642.63
2023-09-03T19:38:08.591Z,99634.91
2023-09-03T19:40:36.556Z,99642.56
2023-09-03T19:43:04.610Z,99652.19
2023-09-03T19:45:32.566Z,99643.66
2023-09-03T19:48:20.096Z,99647.47
2023-09-03T19:50:48.348Z,99654.38
2023-09-03T19:53:16.365Z,99669.44
2023-09-03T19:55:44.644Z,99682.13
2023-09-03T19:58:13.636Z,99698.66
2023-09-03T20:00:41.738Z,99682.19
2023-09-03T20:03:09.946Z,99670.72
2023-09-03T20:05:39.545Z,99674.03
2023-09-03T20:08:07.992Z,99673.41
2023-09-03T20:10:36.735Z,99679.44
2023-09-03T20:13:05.235Z,99694.25
2023-09-03T20:15:33.725Z,99707.16
2023-09-03T20:18:01.850Z,99694.81
2023-09-03T20:20:29.878Z,99695.91
2023-09-03T20:23:00.483Z,99703.56
2023-09-03T20:25:28.504Z,99701.91
2023-09-03T20:27:56.457Z,99719.53
2023-09-03T20:30:24.597Z,99734.31
2023-09-03T20:32:52.607Z,99746.38
2023-09-03T20:35:21.008Z,99742.88
2023-09-03T20:37:49.226Z,99735.44
2023-09-03T20:40:19.743Z,99731.59
2023-09-03T20:42:47.696Z,99737.09
2023-09-03T20:45:23.135Z,99744.22
2023-09-03T20:47:51.495Z,99737.84
2023-09-03T20:50:19.524Z,99746.34
2023-09-03T20:52:47.516Z,99743.06
2023-09-03T20:55:15.517Z,99743.50
2023-09-03T20:57:44.887Z,99745.75
2023-09-03T21:00:14.177Z,99754.47
2023-09-03T21:02:43.120Z,99758.28
2023-09-03T21:05:11.459Z,99750.63
2023-09-03T21:07:39.471Z,99746.25
2023-09-03T21:10:08.929Z,99746.78
2023-09-03T21:12:39.672Z,99741.81
2023-09-03T21:15:10.662Z,99744.53
2023-09-03T21:17:38.678Z,99734.81
2023-09-03T21:20:07.769Z,99741.59
2023-09-03T21:22:36.160Z,99744.84
2023-09-03T21:25:04.187Z,99756.78
2023-09-03T21:27:32.180Z,99755.59
2023-09-03T21:30:00.203Z,99748.78
2023-09-03T21:32:29.933Z,99746.84
2023-09-03T21:35:06.628Z,99746.44
2023-09-03T21:37:38.723Z,99735.19
2023-09-03T21:40:07.860Z,99746.09
2023-09-03T21:42:35.863Z,99736.16
2023-09-03T21:45:03.823Z,99738.34
2023-09-03T21:47:33.214Z,99732.81
2023-09-03T21:50:01.268Z,99726.19
2023-09-03T21:52:30.237Z,99725.09
2023-09-03T21:54:58.260Z,99721.13
2023-09-03T21:57:26.292Z,99716.38
2023-09-03T21:59:54.237Z,99722.91
2023-09-03T22:02:22.923Z,99720.44
2023-09-03T22:04:52.316Z,99705.88
2023-09-03T22:07:27.121Z,99711.00
2023-09-03T22:09:55.260Z,99708.28
2023-09-03T22:12:23.244Z,99708.81
2023-09-03T22:14:51.176Z,99702.28
2023-09-03T22:17:19.130Z,99701.28
2023-09-03T22:19:47.081Z,99695.81
2023-09-03T22:22:16.451Z,99689.16
2023-09-03T22:24:44.404Z,99693.31
2023-09-03T22:27:12.408Z,99687.84
2023-09-03T22:29:40.408Z,99687.34
2023-09-03T22:32:08.393Z,99687.59
2023-09-03T22:34:36.390Z,99676.56
2023-09-03T22:37:04.505Z,99674.41
2023-09-03T22:39:35.187Z,99673.28
2023-09-03T22:42:03.174Z,99665.56
2023-09-03T22:44:31.199Z,99665.31
2023-09-03T22:46:59.418Z,99671.78
2023-09-03T22:49:27.382Z,99677.44
2023-09-03T22:51:55.341Z,99677.97
2023-09-03T22:54:23.326Z,99681.78
2023-09-03T22:56:52.682Z,99677.28
2023-09-03T22:59:20.695Z,99676.56
2023-09-03T23:01:48.748Z,99691.56
2023-09-03T23:04:16.773Z,99706.13
2023-09-03T23:06:44.759Z,99728.53
2023-09-03T23:09:12.740Z,99780.06
2023-09-03T23:11:40.690Z,99787.50
2023-09-03T23:14:10.027Z,99808.19
2023-09-03T23:16:38.058Z,99808.88
2023-09-03T23:19:06.148Z,99792.50
2023-09-03T23:21:34.176Z,99799.19
2023-09-03T23:24:02.157Z,99809.13
2023-09-03T23:26:30.170Z,99808.47
2023-09-03T23:28:59.375Z,99814.41
2023-09-03T23:31:31.371Z,99800.25
2023-09-03T23:33:59.389Z,99817.84
2023-09-03T23:36:27.365Z,99808.16
2023-09-03T23:38:55.343Z,99822.16
2023-09-03T23:41:23.307Z,99818.16
2023-09-03T23:43:51.273Z,99824.78
2023-09-03T23:46:19.369Z,99821.78
2023-09-03T23:48:48.700Z,99817.06
2023-09-03T23:51:16.730Z,99826.63
2023-09-03T23:53:45.489Z,99827.19
2023-09-03T23:56:13.498Z,99828.34
2023-09-03T23:58:41.498Z,99826.13
